^^
Saratoga-Weather Station Historical Data
Daily Summary for July 31, 2020 Units:  English    Metric   Both
Daily Weekly Monthly Yearly Custom
  High: Low: Average:
Temperature: 62.4 °F 47.7 °F 54.7 °F
Dew Point: 54 °F 46 °F 50.2 °F
Humidity: 95% 67% 85%
Wind Speed: 10.1mph 0mph 0.9mph
Wind Gust: 13mph - -
Wind- - SE
Pressure: 30.3 in 30 in -
Precipitation: 0 in    
Historical Graphs
 
 
Tabular Data for July 31, 2020
Time Temperature Dew Point Pressure Wind Wind Speed Wind Gust Humidity Rainfall Rate (Hourly) solar
00:01 54 °F 50.5 °F 30.3 in Calm   1 mph 88% 0 in 0 W/m2
00:06 54 °F 50.7 °F 30.3 in Calm   1 mph 89% 0 in 0 W/m2
00:11 53.8 °F 50.5 °F 30.3 in Calm     89% 0 in 0 W/m2
00:16 53.6 °F 50.2 °F 30.3 in Calm   1 mph 88% 0 in 0 W/m2
00:21 53.6 °F 50.2 °F 30.3 in Calm     88% 0 in 0 W/m2
00:26 53.6 °F 50.2 °F 30.3 in Calm   3 mph 88% 0 in 0 W/m2
00:31 53.6 °F 50.2 °F 30.3 in Calm   1 mph 88% 0 in 0 W/m2
00:37 53.4 °F 50.2 °F 30.3 in Calm   2 mph 89% 0 in 0 W/m2
00:42 53.4 °F 50 °F 30.3 in SSE 0.9 mph 3 mph 88% 0 in 0 W/m2
00:47 53.6 °F 50.2 °F 30.3 in Calm     88% 0 in 0 W/m2
00:52 53.6 °F 50.2 °F 30.3 in Calm   3 mph 88% 0 in 0 W/m2
00:57 53.6 °F 50.4 °F 30.3 in Calm     89% 0 in 0 W/m2
01:02 53.4 °F 50.2 °F 30.3 in Calm   1 mph 89% 0 in 0 W/m2
01:07 53.2 °F 49.8 °F 30.3 in WSW 3 mph 3 mph 88% 0 in 0 W/m2
01:12 53.4 °F 50 °F 30.3 in Calm   1 mph 88% 0 in 0 W/m2
01:17 53.4 °F 49.6 °F 30.3 in SSE 2 mph 3 mph 87% 0 in 0 W/m2
01:22 53.8 °F 50 °F 30.3 in Calm   1 mph 87% 0 in 0 W/m2
01:27 53.8 °F 50.4 °F 30.3 in Calm     88% 0 in 0 W/m2
01:32 53.8 °F 50.4 °F 30.2 in Calm     88% 0 in 0 W/m2
01:37 53.4 °F 50 °F 30.3 in Calm   2 mph 88% 0 in 0 W/m2
01:42 53.4 °F 50.2 °F 30.2 in Calm     89% 0 in 0 W/m2
01:47 53.4 °F 50.2 °F 30.2 in Calm   2 mph 89% 0 in 0 W/m2
01:52 53.2 °F 50.4 °F 30.2 in Calm     90% 0 in 0 W/m2
01:57 53.1 °F 50.2 °F 30.2 in Calm     90% 0 in 0 W/m2
02:02 53.1 °F 50.2 °F 30.2 in Calm     90% 0 in 0 W/m2
02:07 53.1 °F 50.2 °F 30.2 in Calm     90% 0 in 0 W/m2
02:12 53.1 °F 50.2 °F 30.2 in Calm     90% 0 in 0 W/m2
02:17 52.9 °F 50 °F 30.2 in Calm     90% 0 in 0 W/m2
02:22 52.9 °F 50 °F 30.2 in Calm     90% 0 in 0 W/m2
02:27 52.9 °F 50 °F 30.2 in Calm   1 mph 90% 0 in 0 W/m2
02:32 52.9 °F 50 °F 30.2 in Calm     90% 0 in 0 W/m2
02:37 52.7 °F 49.8 °F 30.2 in Calm   1 mph 90% 0 in 0 W/m2
02:42 52.5 °F 49.6 °F 30.2 in Calm     90% 0 in 0 W/m2
02:47 52.5 °F 50 °F 30.2 in Calm   1 mph 91% 0 in 0 W/m2
02:52 52.5 °F 50 °F 30.2 in Calm     91% 0 in 0 W/m2
02:57 52.3 °F 49.8 °F 30.2 in Calm   1 mph 91% 0 in 0 W/m2
03:02 52.3 °F 49.8 °F 30.2 in Calm     91% 0 in 0 W/m2
03:07 52.3 °F 49.8 °F 30.2 in Calm     91% 0 in 0 W/m2
03:12 52.3 °F 50 °F 30.2 in West 0.9 mph 1 mph 92% 0 in 0 W/m2
03:17 52.2 °F 49.8 °F 30.2 in West 0.9 mph 1 mph 92% 0 in 0 W/m2
03:22 52.2 °F 49.8 °F 30.2 in Calm     92% 0 in 0 W/m2
03:27 52.2 °F 49.8 °F 30.2 in Calm   1 mph 92% 0 in 0 W/m2
03:32 52.2 °F 49.8 °F 30.2 in Calm     92% 0 in 0 W/m2
03:37 52 °F 49.6 °F 30.2 in Calm     92% 0 in 0 W/m2
03:42 52 °F 49.6 °F 30.2 in Calm     92% 0 in 0 W/m2
03:47 52 °F 49.6 °F 30.2 in Calm     92% 0 in 0 W/m2
03:52 52 °F 49.6 °F 30.2 in Calm     92% 0 in 0 W/m2
03:57 52 °F 50 °F 30.2 in Calm     93% 0 in 0 W/m2
04:02 51.8 °F 49.8 °F 30.2 in Calm     93% 0 in 0 W/m2
04:07 51.6 °F 49.5 °F 30.2 in Calm     92% 0 in 0 W/m2
04:12 51.6 °F 49.5 °F 30.2 in Calm     92% 0 in 0 W/m2
04:17 51.6 °F 49.5 °F 30.2 in West 0.9 mph 1 mph 92% 0 in 0 W/m2
04:22 51.4 °F 49.3 °F 30.2 in Calm     92% 0 in 0 W/m2
04:27 51.4 °F 49.3 °F 30.2 in Calm     92% 0 in 0 W/m2
04:32 51.4 °F 49.3 °F 30.2 in Calm     92% 0 in 0 W/m2
04:37 51.4 °F 49.3 °F 30.2 in Calm     92% 0 in 0 W/m2
04:42 51.4 °F 49.3 °F 30.2 in Calm     92% 0 in 0 W/m2
04:47 51.4 °F 49.5 °F 30.2 in Calm     93% 0 in 0 W/m2
04:52 51.4 °F 49.5 °F 30.2 in Calm     93% 0 in 0 W/m2
04:57 51.4 °F 49.5 °F 30.2 in Calm     93% 0 in 0 W/m2
05:02 51.4 °F 49.5 °F 30.2 in Calm   1 mph 93% 0 in 0 W/m2
05:07 51.3 °F 49.3 °F 30.2 in Calm     93% 0 in 0 W/m2
05:12 51.3 °F 49.3 °F 30.2 in Calm   1 mph 93% 0 in 0 W/m2
05:17 51.3 °F 49.3 °F 30.2 in Calm     93% 0 in 0 W/m2
05:22 51.1 °F 49.1 °F 30.2 in Calm     93% 0 in 0 W/m2
05:27 51.1 °F 49.1 °F 30.2 in Calm     93% 0 in 0 W/m2
05:33 50.9 °F 48.7 °F 30.2 in Calm     92% 0 in 0 W/m2
05:38 50.7 °F 48.6 °F 30.2 in Calm     92% 0 in 0 W/m2
05:43 50.5 °F 48.6 °F 30.2 in West 0.9 mph 1 mph 93% 0 in 0 W/m2
05:48 50.5 °F 48.6 °F 30.2 in Calm     93% 0 in 0 W/m2
05:53 50.5 °F 48.6 °F 30.2 in Calm     93% 0 in 0 W/m2
05:58 50.5 °F 48.6 °F 30.2 in Calm     93% 0 in 0 W/m2
06:03 50.5 °F 48.6 °F 30.2 in Calm     93% 0 in 0 W/m2
06:08 50.5 °F 48.6 °F 30.2 in Calm     93% 0 in 0 W/m2
06:13 50.5 °F 48.6 °F 30.2 in Calm     93% 0 in 0 W/m2
06:18 50.5 °F 48.6 °F 30.2 in Calm     93% 0 in 0 W/m2
06:23 50.4 °F 48.4 °F 30.2 in Calm     93% 0 in 0 W/m2
06:28 50.4 °F 48.4 °F 30.2 in Calm     93% 0 in 0 W/m2
06:33 50.2 °F 48.2 °F 30.2 in Calm   1 mph 93% 0 in 0 W/m2
06:38 50.2 °F 48.2 °F 30.2 in Calm   1 mph 93% 0 in 0 W/m2
06:43 50 °F 48 °F 30.2 in Calm     93% 0 in 0 W/m2
06:48 49.8 °F 47.8 °F 30.2 in Calm     93% 0 in 0 W/m2
06:53 49.8 °F 47.8 °F 30.2 in Calm     93% 0 in 0 W/m2
06:58 49.8 °F 47.8 °F 30.2 in Calm     93% 0 in 0 W/m2
07:03 49.6 °F 47.7 °F 30.2 in Calm     93% 0 in 0 W/m2
07:08 49.6 °F 47.7 °F 30.2 in Calm     93% 0 in 0 W/m2
07:13 49.6 °F 47.7 °F 30.2 in Calm     93% 0 in 0 W/m2
07:18 49.6 °F 47.7 °F 30.2 in Calm     93% 0 in 0 W/m2
07:23 49.6 °F 47.7 °F 30.2 in Calm     93% 0 in 0 W/m2
07:28 49.5 °F 47.5 °F 30.2 in Calm     93% 0 in 0 W/m2
07:33 49.5 °F 47.5 °F 30.2 in Calm     93% 0 in 5 W/m2
07:43 49.3 °F 47.3 °F 30.2 in Calm     93% 0 in 9 W/m2
07:48 49.1 °F 47.1 °F 30.2 in Calm     93% 0 in 11 W/m2
07:53 48.9 °F 46.9 °F 30.2 in Calm     93% 0 in 14 W/m2
07:58 48.7 °F 46.8 °F 30.2 in Calm     93% 0 in 14 W/m2
08:03 48.6 °F 46.6 °F 30.2 in Calm     93% 0 in 19 W/m2
08:08 48.4 °F 46.4 °F 30.2 in Calm     93% 0 in 21 W/m2
08:13 48 °F 46 °F 30.2 in Calm     93% 0 in 21 W/m2
08:18 48 °F 46 °F 30.2 in Calm     93% 0 in 21 W/m2
08:23 47.8 °F 46.2 °F 30.2 in Calm     94% 0 in 25 W/m2
08:28 47.7 °F 46 °F 30.2 in Calm     94% 0 in 25 W/m2
08:33 47.7 °F 46 °F 30.2 in Calm     94% 0 in 26 W/m2
08:38 47.7 °F 46 °F 30.2 in Calm     94% 0 in 28 W/m2
08:43 47.7 °F 46 °F 30.2 in Calm     94% 0 in 28 W/m2
08:48 47.7 °F 46 °F 30.2 in Calm     94% 0 in 30 W/m2
08:53 47.8 °F 46.2 °F 30.2 in WNW 0.9 mph 1 mph 94% 0 in 79 W/m2
08:58 48 °F 46.6 °F 30.2 in Calm   1 mph 95% 0 in 67 W/m2
09:03 48.6 °F 47.1 °F 30.2 in Calm   2 mph 95% 0 in 148 W/m2
09:08 48.9 °F 47.5 °F 30.2 in Calm   2 mph 95% 0 in 109 W/m2
09:13 49.5 °F 48 °F 30.2 in ENE 2 mph 3 mph 95% 0 in 74 W/m2
09:18 50.4 °F 48.7 °F 30.2 in NE 0.9 mph 6 mph 94% 0 in 127 W/m2
09:23 51.3 °F 48.7 °F 30.2 in East 0.9 mph 6 mph 91% 0 in 107 W/m2
09:28 51.6 °F 48.7 °F 30.2 in East 0.9 mph 7 mph 90% 0 in 128 W/m2
09:33 52.3 °F 48.9 °F 30.2 in Calm   3 mph 88% 0 in 79 W/m2
09:38 52.5 °F 48.7 °F 30.2 in ENE 2 mph 7 mph 87% 0 in 40 W/m2
09:43 52.9 °F 48.7 °F 30.2 in ENE 0.9 mph 3 mph 86% 0 in 39 W/m2
09:48 53.2 °F 48.9 °F 30.2 in NE 2.9 mph 7 mph 85% 0 in 72 W/m2
09:53 53.4 °F 49.1 °F 30.2 in NE 0.9 mph 4 mph 85% 0 in 60 W/m2
09:58 53.6 °F 48.9 °F 30.2 in East 0.9 mph 7 mph 84% 0 in 53 W/m2
10:04 54 °F 48.9 °F 30.2 in ENE 2 mph 5 mph 83% 0 in 49 W/m2
10:09 54.1 °F 48.7 °F 30.2 in East 0.9 mph 6 mph 82% 0 in 47 W/m2
10:14 54.5 °F 48.7 °F 30.2 in ESE 0.9 mph 4 mph 81% 0 in 44 W/m2
10:19 54.7 °F 48.6 °F 30.2 in East 2 mph 5 mph 80% 0 in 51 W/m2
10:24 54.9 °F 48.7 °F 30.2 in ESE 4.9 mph 10 mph 80% 0 in 49 W/m2
10:29 54.9 °F 48.7 °F 30.2 in East 4 mph 6 mph 80% 0 in 44 W/m2
10:34 55 °F 48.6 °F 30.2 in ENE 2.9 mph 10 mph 79% 0 in 40 W/m2
10:39 55.2 °F 48.6 °F 30.2 in NNE 2 mph 11 mph 78% 0 in 39 W/m2
10:44 55.6 °F 49.1 °F 30.2 in East 6 mph 8 mph 79% 0 in 44 W/m2
10:49 55.6 °F 48.9 °F 30.2 in NNE 2.9 mph 9 mph 78% 0 in 39 W/m2
10:54 55.8 °F 48.9 °F 30.2 in ENE 2.9 mph 9 mph 78% 0 in 47 W/m2
10:59 55.9 °F 49.1 °F 30.2 in NE 2 mph 4 mph 78% 0 in 39 W/m2
11:04 55.9 °F 48.9 °F 30.2 in East 2 mph 9 mph 77% 0 in 42 W/m2
11:09 55.9 °F 49.1 °F 30.2 in ESE 2.9 mph 4 mph 78% 0 in 49 W/m2
11:14 56.1 °F 49.3 °F 30.2 in ENE 2 mph 9 mph 78% 0 in 121 W/m2
11:19 56.1 °F 49.3 °F 30.2 in ENE 4 mph 5 mph 78% 0 in 49 W/m2
11:24 56.3 °F 49.1 °F 30.1 in SE 4 mph 9 mph 77% 0 in 42 W/m2
11:29 56.5 °F 49.3 °F 30.1 in ESE 4 mph 11 mph 77% 0 in 47 W/m2
11:34 56.5 °F 49.3 °F 30.1 in East 6.9 mph 8 mph 77% 0 in 51 W/m2
11:39 56.7 °F 49.5 °F 30.1 in East 2.9 mph 7 mph 77% 0 in 58 W/m2
11:44 56.7 °F 49.5 °F 30.1 in SE 0.9 mph 6 mph 77% 0 in 44 W/m2
11:49 56.8 °F 49.6 °F 30.1 in ENE 4 mph 5 mph 77% 0 in 213 W/m2
11:54 57 °F 49.5 °F 30.1 in NE 0.9 mph 10 mph 76% 0 in 281 W/m2
11:59 57.4 °F 49.8 °F 30.1 in ENE 2.9 mph 4 mph 76% 0 in 167 W/m2
12:04 57.6 °F 50 °F 30.1 in Calm   10 mph 76% 0 in 76 W/m2
12:09 57.6 °F 50 °F 30.1 in ENE 2 mph 6 mph 76% 0 in 67 W/m2
12:14 57.7 °F 50.2 °F 30.1 in ENE 2 mph 7 mph 76% 0 in 53 W/m2
12:19 57.9 °F 50 °F 30.1 in ENE 2 mph 9 mph 75% 0 in 111 W/m2
12:24 58.3 °F 50.4 °F 30.1 in ESE 0.9 mph 7 mph 75% 0 in 54 W/m2
12:29 58.5 °F 50.5 °F 30.1 in East 4.9 mph 11 mph 75% 0 in 42 W/m2
12:34 58.6 °F 50.7 °F 30.1 in ESE 2.9 mph 7 mph 75% 0 in 42 W/m2
12:39 58.5 °F 50.2 °F 30.1 in NE 0.9 mph 11 mph 74% 0 in 77 W/m2
12:44 58.8 °F 50.5 °F 30.1 in SE 4 mph 7 mph 74% 0 in 46 W/m2
12:49 59 °F 50.7 °F 30.1 in East 0.9 mph 9 mph 74% 0 in 69 W/m2
12:54 59.2 °F 50.9 °F 30.1 in SE 2.9 mph 10 mph 74% 0 in 47 W/m2
12:59 59.4 °F 51.1 °F 30.1 in East 2 mph 3 mph 74% 0 in 58 W/m2
13:04 59.4 °F 51.1 °F 30.1 in ESE 2 mph 3 mph 74% 0 in 53 W/m2
13:09 59.4 °F 50.7 °F 30.1 in East 0.9 mph 3 mph 73% 0 in 40 W/m2
13:14 59.5 °F 50.9 °F 30.1 in ESE 2 mph 4 mph 73% 0 in 37 W/m2
13:19 59.5 °F 51.3 °F 30.1 in SE 2 mph 5 mph 74% 0 in 47 W/m2
13:24 59.5 °F 51.3 °F 30.1 in East 6 mph 10 mph 74% 0 in 95 W/m2
13:29 59.5 °F 51.3 °F 30.1 in NE 6 mph 8 mph 74% 0 in 90 W/m2
13:34 59.7 °F 51.4 °F 30.1 in SE 2 mph 10 mph 74% 0 in 63 W/m2
13:39 59.7 °F 51.4 °F 30.1 in East 4 mph 5 mph 74% 0 in 74 W/m2
13:44 60.1 °F 51.8 °F 30.1 in Calm   2 mph 74% 0 in 102 W/m2
13:49 60.3 °F 52 °F 30.1 in Calm   2 mph 74% 0 in 156 W/m2
13:54 60.1 °F 51.8 °F 30.1 in SE 2 mph 5 mph 74% 0 in 40 W/m2
13:59 60.1 °F 51.8 °F 30.1 in ESE 0.9 mph 3 mph 74% 0 in 46 W/m2
14:04 60.1 °F 51.8 °F 30.1 in ENE 2.9 mph 4 mph 74% 0 in 42 W/m2
14:09 60.3 °F 52 °F 30.1 in Calm   3 mph 74% 0 in 42 W/m2
14:14 60.1 °F 52.5 °F 30.1 in Calm   2 mph 76% 0 in 46 W/m2
14:19 59.9 °F 52 °F 30.1 in Calm   4 mph 75% 0 in 58 W/m2
14:24 60.3 °F 52.3 °F 30.1 in ENE 0.9 mph 2 mph 75% 0 in 69 W/m2
14:29 60.4 °F 52.2 °F 30.1 in NE 2 mph 4 mph 74% 0 in 72 W/m2
14:34 60.6 °F 52 °F 30.1 in NNE 0.9 mph 2 mph 73% 0 in 69 W/m2
14:39 61.2 °F 50.9 °F 30.1 in North 0.9 mph 2 mph 69% 0 in 67 W/m2
14:44 61.3 °F 51.1 °F 30.1 in Calm   3 mph 69% 0 in 54 W/m2
14:49 61.5 °F 51.3 °F 30.1 in West 2.9 mph 4 mph 69% 0 in 54 W/m2
14:54 61.5 °F 51.6 °F 30.1 in NNW 2 mph 3 mph 70% 0 in 58 W/m2
14:59 61.3 °F 51.4 °F 30.1 in NE 0.9 mph 4 mph 70% 0 in 65 W/m2
15:04 61.5 °F 51.3 °F 30.1 in ENE 2 mph 3 mph 69% 0 in 72 W/m2
15:09 61.5 °F 50.9 °F 30.1 in Calm   2 mph 68% 0 in 81 W/m2
15:14 61.7 °F 51.4 °F 30.1 in NW 0.9 mph 3 mph 69% 0 in 93 W/m2
15:20 61.9 °F 51.6 °F 30.1 in NNW 0.9 mph 2 mph 69% 0 in 98 W/m2
15:25 61.9 °F 50.7 °F 30.1 in Calm   3 mph 67% 0 in 105 W/m2
15:30 62.1 °F 51.4 °F 30.1 in Calm   2 mph 68% 0 in 98 W/m2
15:35 62.1 °F 51.4 °F 30.1 in Calm   4 mph 68% 0 in 91 W/m2
15:40 62.2 °F 51.6 °F 30.1 in Calm   2 mph 68% 0 in 79 W/m2
15:45 62.4 °F 52.2 °F 30.1 in Calm   4 mph 69% 0 in 70 W/m2
15:50 62.2 °F 52.3 °F 30.1 in West 0.9 mph 2 mph 70% 0 in 65 W/m2
15:55 62.2 °F 52.3 °F 30.1 in WNW 0.9 mph 4 mph 70% 0 in 63 W/m2
16:00 61.9 °F 52.7 °F 30.1 in Calm   2 mph 72% 0 in 62 W/m2
16:05 61.2 °F 52 °F 30.1 in NE 0.9 mph 4 mph 72% 0 in 56 W/m2
16:10 61 °F 53.1 °F 30.1 in Calm   1 mph 75% 0 in 49 W/m2
16:15 60.3 °F 52.7 °F 30.1 in Calm   3 mph 76% 0 in 42 W/m2
16:20 59.7 °F 52.9 °F 30.1 in Calm     78% 0 in 35 W/m2
16:25 59.2 °F 52.7 °F 30.1 in Calm   1 mph 79% 0 in 28 W/m2
16:30 58.6 °F 51.8 °F 30.1 in East 0.9 mph 2 mph 78% 0 in 26 W/m2
16:35 58.6 °F 52.5 °F 30.1 in Calm   2 mph 80% 0 in 23 W/m2
16:40 58.3 °F 52.2 °F 30.1 in East 0.9 mph 3 mph 80% 0 in 19 W/m2
16:45 57.9 °F 52.2 °F 30.1 in Calm   1 mph 81% 0 in 18 W/m2
16:50 57.6 °F 52.2 °F 30.1 in Calm   2 mph 82% 0 in 16 W/m2
16:55 57 °F 52 °F 30.1 in Calm   2 mph 83% 0 in 14 W/m2
17:00 56.7 °F 51.8 °F 30 in Calm   1 mph 84% 0 in 12 W/m2
17:05 56.3 °F 51.4 °F 30 in Calm     84% 0 in 11 W/m2
17:10 56.1 °F 51.6 °F 30 in Calm     85% 0 in 7 W/m2
17:15 55.8 °F 51.3 °F 30 in Calm     85% 0 in 0 W/m2
17:20 55.6 °F 51.1 °F 30 in Calm   2 mph 85% 0 in 0 W/m2
17:25 55 °F 50.9 °F 30 in East 0.9 mph 1 mph 86% 0 in 0 W/m2
17:30 54.7 °F 50.5 °F 30 in Calm   2 mph 86% 0 in 0 W/m2
17:35 54.3 °F 50.5 °F 30 in East 0.9 mph 1 mph 87% 0 in 0 W/m2
17:40 54 °F 50.2 °F 30 in Calm     87% 0 in 0 W/m2
17:45 53.6 °F 50.2 °F 30 in Calm   1 mph 88% 0 in 0 W/m2
17:50 53.4 °F 50.2 °F 30.1 in Calm   2 mph 89% 0 in 0 W/m2
17:55 53.2 °F 50 °F 30.1 in Calm     89% 0 in 0 W/m2
18:00 53.1 °F 50.2 °F 30 in Calm     90% 0 in 0 W/m2
18:05 52.9 °F 50 °F 30 in Calm     90% 0 in 0 W/m2
18:10 52.9 °F 50 °F 30.1 in Calm     90% 0 in 0 W/m2
18:15 52.7 °F 50.2 °F 30.1 in Calm     91% 0 in 0 W/m2
18:20 52.7 °F 50.2 °F 30.1 in Calm     91% 0 in 0 W/m2
18:25 52.7 °F 50.2 °F 30.1 in Calm     91% 0 in 0 W/m2
18:30 52.5 °F 50 °F 30 in Calm     91% 0 in 0 W/m2
18:36 52.5 °F 50 °F 30 in Calm     91% 0 in 0 W/m2
18:41 52.5 °F 50 °F 30 in Calm     91% 0 in 0 W/m2
18:46 52.5 °F 50 °F 30 in Calm     91% 0 in 0 W/m2
18:51 52.3 °F 49.8 °F 30 in Calm     91% 0 in 0 W/m2
18:56 52.3 °F 49.8 °F 30 in Calm     91% 0 in 0 W/m2
19:01 52.2 °F 49.6 °F 30 in Calm     91% 0 in 0 W/m2
19:06 52.2 °F 49.8 °F 30 in Calm     92% 0 in 0 W/m2
19:11 52.2 °F 49.8 °F 30 in Calm   1 mph 92% 0 in 0 W/m2
19:16 52.2 °F 49.8 °F 30 in Calm     92% 0 in 0 W/m2
19:21 52.2 °F 49.8 °F 30 in Calm   1 mph 92% 0 in 0 W/m2
19:26 52.2 °F 49.8 °F 30 in Calm     92% 0 in 0 W/m2
19:31 52.3 °F 50 °F 30 in Calm     92% 0 in 0 W/m2
19:36 52.3 °F 50.4 °F 30 in Calm     93% 0 in 0 W/m2
19:41 52.3 °F 50.4 °F 30 in Calm     93% 0 in 0 W/m2
19:46 52.5 °F 50.5 °F 30 in Calm     93% 0 in 0 W/m2
19:51 52.5 °F 50.5 °F 30 in Calm     93% 0 in 0 W/m2
19:56 52.9 °F 50.9 °F 30 in East 0.9 mph 2 mph 93% 0 in 0 W/m2
20:01 52.9 °F 50.9 °F 30 in Calm     93% 0 in 0 W/m2
20:06 53.1 °F 51.1 °F 30 in Calm     93% 0 in 0 W/m2
20:11 53.2 °F 51.3 °F 30 in Calm     93% 0 in 0 W/m2
20:16 53.4 °F 51.1 °F 30 in East 0.9 mph 3 mph 92% 0 in 0 W/m2
20:21 53.8 °F 51.4 °F 30 in SSE 0.9 mph 2 mph 92% 0 in 0 W/m2
20:26 54 °F 51.6 °F 30 in SSE 0.9 mph 3 mph 92% 0 in 0 W/m2
20:31 54.1 °F 51.8 °F 30 in ENE 0.9 mph 4 mph 92% 0 in 0 W/m2
20:36 54.3 °F 51.8 °F 30 in Calm   1 mph 91% 0 in 0 W/m2
20:41 54.7 °F 52.2 °F 30 in Calm   4 mph 91% 0 in 0 W/m2
20:46 54.9 °F 52 °F 30 in ENE 2 mph 3 mph 90% 0 in 0 W/m2
20:51 55.2 °F 52 °F 30 in ENE 2 mph 4 mph 89% 0 in 0 W/m2
20:56 55.8 °F 52.3 °F 30 in NE 4 mph 4 mph 88% 0 in 0 W/m2
21:01 56.3 °F 52.5 °F 30 in ESE 2 mph 2 mph 87% 0 in 0 W/m2
21:06 56.5 °F 52.7 °F 30 in Calm   2 mph 87% 0 in 0 W/m2
21:11 56.5 °F 52.3 °F 30 in NE 0.9 mph 1 mph 86% 0 in 0 W/m2
21:16 56.3 °F 52.5 °F 30 in East 0.9 mph 4 mph 87% 0 in 0 W/m2
21:21 56.1 °F 52.7 °F 30 in East 0.9 mph 1 mph 88% 0 in 0 W/m2
21:26 55.9 °F 52.5 °F 30 in ENE 2 mph 2 mph 88% 0 in 0 W/m2
21:31 55.8 °F 52.5 °F 30 in ENE 2 mph 3 mph 89% 0 in 0 W/m2
21:36 55.8 °F 52.3 °F 30 in West 0.9 mph 2 mph 88% 0 in 0 W/m2
21:41 55.9 °F 52.7 °F 30 in SSE 0.9 mph 4 mph 89% 0 in 0 W/m2
21:46 56.1 °F 52.7 °F 30 in Calm   6 mph 88% 0 in 0 W/m2
21:51 56.5 °F 52.7 °F 30 in NE 0.9 mph 4 mph 87% 0 in 0 W/m2
21:56 57 °F 52.9 °F 30 in North 2 mph 6 mph 86% 0 in 0 W/m2
22:01 57.6 °F 52.7 °F 30 in West 0.9 mph 2 mph 84% 0 in 0 W/m2
22:06 57.7 °F 52.7 °F 30 in Calm   5 mph 83% 0 in 0 W/m2
22:11 57.9 °F 52.7 °F 30 in Calm   2 mph 83% 0 in 0 W/m2
22:16 58.1 °F 52.9 °F 30 in Calm     83% 0 in 0 W/m2
22:21 57.9 °F 53.1 °F 30 in Calm     84% 0 in 0 W/m2
22:26 57.7 °F 52.9 °F 30 in Calm   1 mph 84% 0 in 0 W/m2
22:31 57.7 °F 52.9 °F 30 in West 2 mph 3 mph 84% 0 in 0 W/m2
22:36 57.9 °F 52.5 °F 30 in NW 2 mph 4 mph 82% 0 in 0 W/m2
22:41 58.8 °F 52.7 °F 30 in West 2.9 mph 12 mph 80% 0 in 0 W/m2
22:46 59.7 °F 52.9 °F 30 in NNW 4.9 mph 9 mph 78% 0 in 0 W/m2
22:51 60.3 °F 52.7 °F 30 in SW 8.1 mph 11 mph 76% 0 in 0 W/m2
22:56 60.6 °F 53.1 °F 30 in Calm   3 mph 76% 0 in 0 W/m2
23:01 60.6 °F 53.1 °F 30 in WNW 2.9 mph 11 mph 76% 0 in 0 W/m2
23:06 60.4 °F 53.2 °F 30 in WSW 10.1 mph 13 mph 77% 0 in 0 W/m2
23:11 60.4 °F 53.6 °F 30 in NE 2 mph 7 mph 78% 0 in 0 W/m2
23:16 60.4 °F 53.6 °F 30 in WNW 2 mph 7 mph 78% 0 in 0 W/m2
23:21 60.3 °F 53.8 °F 30 in WNW 2 mph 4 mph 79% 0 in 0 W/m2
23:27 60.3 °F 53.8 °F 30 in NW 0.9 mph 3 mph 79% 0 in 0 W/m2
23:32 60.3 °F 53.8 °F 30 in NW 2.9 mph 4 mph 79% 0 in 0 W/m2
23:37 60.3 °F 53.8 °F 30 in South 0.9 mph 9 mph 79% 0 in 0 W/m2
23:42 60.4 °F 54 °F 30 in Calm   4 mph 79% 0 in 0 W/m2
23:47 60.3 °F 53.8 °F 30 in NE 2 mph 9 mph 79% 0 in 0 W/m2
23:52 60.3 °F 53.8 °F 30 in NNW 0.9 mph 3 mph 79% 0 in 0 W/m2
23:57 60.1 °F 54 °F 30 in Calm   5 mph 80% 0 in 0 W/m2
Juneau County Weather
Compliments of Weather Underground - 4 mb